Time;durP1;ratioP1;P1;durP2;ratioP2;P2;SDS_P1;SDS_P2;PMS_P1;PMS_P2;Temp;Humidity;BMP_temperature;BMP_pressure;BME280_temperature;BME280_humidity;BME280_pressure;Samples;Min_cycle;Max_cycle;Signal;HPM_P1;HPM_P2
2022/04/05 00:01:13;;;;;;;7.13;5.90;;;;;;;6.44;100.00;98907.47;5052140;28;20280;-80
2022/04/05 00:03:41;;;;;;;7.55;6.30;;;;;;;6.43;100.00;98895.94;5051896;28;20658;-81
2022/04/05 00:06:07;;;;;;;7.78;6.40;;;;;;;6.35;100.00;98892.78;5052366;28;20212;-81
2022/04/05 00:08:34;;;;;;;8.30;5.50;;;;;;;6.22;100.00;98891.72;5051480;28;20198;-81
2022/04/05 00:11:02;;;;;;;8.57;7.70;;;;;;;6.27;100.00;98892.34;5052240;28;20631;-81
2022/04/05 00:13:28;;;;;;;10.43;7.15;;;;;;;6.20;100.00;98893.59;5052094;28;20195;-81
2022/04/05 00:15:55;;;;;;;7.00;6.30;;;;;;;6.24;100.00;98889.78;5051979;28;20282;-81
2022/04/05 00:18:22;;;;;;;9.90;7.53;;;;;;;6.19;100.00;98891.84;5052034;28;20284;-81
2022/04/05 00:20:50;;;;;;;7.60;6.32;;;;;;;6.23;100.00;98886.25;5052447;28;20196;-81
2022/04/05 00:23:16;;;;;;;7.45;6.55;;;;;;;6.28;100.00;98880.69;5051901;28;20193;-82
2022/04/05 00:25:43;;;;;;;8.07;6.68;;;;;;;6.30;100.00;98884.13;5044396;28;20197;-82
2022/04/05 00:28:10;;;;;;;9.70;7.78;;;;;;;6.46;100.00;98882.38;5051578;28;20197;-82
2022/04/05 00:30:36;;;;;;;9.45;7.50;;;;;;;6.47;100.00;98884.13;5051409;28;20189;-82
2022/04/05 00:33:03;;;;;;;11.82;7.50;;;;;;;6.31;100.00;98880.53;5051818;28;20639;-81
2022/04/05 00:35:30;;;;;;;13.85;8.60;;;;;;;6.23;100.00;98882.72;5051515;28;20292;-81
2022/04/05 00:37:58;;;;;;;9.07;7.63;;;;;;;6.17;100.00;98883.03;5051699;28;20207;-82
2022/04/05 00:40:25;;;;;;;10.20;8.10;;;;;;;6.13;100.00;98873.44;5051655;28;20255;-82
2022/04/05 00:42:52;;;;;;;9.90;8.43;;;;;;;6.17;100.00;98875.03;5051647;28;20193;-82
2022/04/05 00:45:20;;;;;;;11.63;8.85;;;;;;;6.21;100.00;98873.94;5050774;28;20197;-82
2022/04/05 00:47:50;;;;;;;11.32;9.27;;;;;;;6.20;100.00;98880.22;5052278;28;20185;-82
2022/04/05 00:50:20;;;;;;;10.23;8.13;;;;;;;6.31;100.00;98875.19;5055317;28;20189;-82
2022/04/05 00:52:47;;;;;;;12.43;8.32;;;;;;;6.35;100.00;98865.19;5055461;28;20199;-82
2022/04/05 00:55:18;;;;;;;10.68;8.50;;;;;;;6.37;100.00;98866.81;5055206;28;20227;-82
2022/04/05 00:57:47;;;;;;;10.95;8.48;;;;;;;6.50;100.00;98868.88;5055147;28;20263;-82
2022/04/05 01:00:15;;;;;;;9.57;8.63;;;;;;;6.51;100.00;98860.75;5055497;28;20675;-82
2022/04/05 01:02:44;;;;;;;10.18;8.57;;;;;;;6.47;100.00;98854.72;5055313;28;20196;-81
2022/04/05 01:05:11;;;;;;;16.73;8.77;;;;;;;6.56;100.00;98860.53;5055376;28;20268;-81
2022/04/05 01:07:41;;;;;;;13.38;8.80;;;;;;;6.44;100.00;98872.72;5055120;28;20269;-82
2022/04/05 01:10:10;;;;;;;9.07;7.50;;;;;;;6.63;100.00;98862.78;5055297;28;20651;-81
2022/04/05 01:12:39;;;;;;;11.07;7.93;;;;;;;6.66;100.00;98867.09;5054816;28;20232;-82
2022/04/05 01:15:06;;;;;;;11.32;9.05;;;;;;;6.60;100.00;98870.97;5052347;28;20530;-81
2022/04/05 01:17:35;;;;;;;10.25;8.55;;;;;;;6.63;100.00;98859.25;5055235;28;20197;-81
2022/04/05 01:20:02;;;;;;;10.40;8.70;;;;;;;6.60;100.00;98862.06;5055046;28;20643;-81
2022/04/05 01:22:28;;;;;;;9.05;8.15;;;;;;;6.39;100.00;98862.25;5054641;28;20254;-81
2022/04/05 01:24:56;;;;;;;14.02;8.93;;;;;;;6.29;100.00;98853.03;5054161;28;20212;-81
2022/04/05 01:27:27;;;;;;;13.10;10.10;;;;;;;6.16;100.00;98858.13;5055620;28;20212;-81
2022/04/05 01:29:55;;;;;;;15.27;9.93;;;;;;;6.18;100.00;98860.72;5055595;28;20536;-81
2022/04/05 01:32:22;;;;;;;11.65;9.77;;;;;;;6.17;100.00;98856.31;5055564;28;20189;-81
2022/04/05 01:34:48;;;;;;;12.80;10.05;;;;;;;6.17;100.00;98872.34;5055745;28;20619;-82
2022/04/05 01:37:15;;;;;;;12.30;9.60;;;;;;;6.32;100.00;98870.69;5054729;28;20300;-81
2022/04/05 01:39:43;;;;;;;14.50;9.68;;;;;;;6.39;100.00;98854.25;5055245;28;20209;-82
2022/04/05 01:42:13;;;;;;;13.50;11.05;;;;;;;6.41;100.00;98863.06;5054299;28;20197;-83
2022/04/05 01:44:40;;;;;;;13.23;10.57;;;;;;;6.26;100.00;98858.50;5055117;28;20628;-82
2022/04/05 01:47:10;;;;;;;11.90;9.52;;;;;;;6.42;100.00;98862.13;5054898;28;20272;-81
2022/04/05 01:49:37;;;;;;;17.27;12.65;;;;;;;6.18;100.00;98858.06;5055337;28;20243;-82
2022/04/05 01:52:04;;;;;;;12.82;10.43;;;;;;;6.28;100.00;98853.09;5054689;28;20198;-82
2022/04/05 01:54:31;;;;;;;14.13;10.27;;;;;;;6.31;100.00;98844.91;5055136;28;20545;-82
2022/04/05 01:56:58;;;;;;;14.13;10.50;;;;;;;6.29;100.00;98845.00;5054608;28;20228;-82
2022/04/05 01:59:28;;;;;;;12.43;10.00;;;;;;;6.46;100.00;98842.28;5053581;28;20231;-82
2022/04/05 02:01:55;;;;;;;14.43;10.15;;;;;;;6.44;100.00;98843.31;5054562;28;20372;-82
2022/04/05 02:04:22;;;;;;;15.32;11.63;;;;;;;6.45;100.00;98848.59;5059901;28;20193;-82
2022/04/05 02:06:49;;;;;;;14.05;9.95;;;;;;;6.50;100.00;98847.47;5054508;28;20620;-82
2022/04/05 02:09:16;;;;;;;11.23;9.70;;;;;;;6.50;100.00;98851.00;5047048;28;20190;-82
2022/04/05 02:11:44;;;;;;;14.15;10.07;;;;;;;6.23;100.00;98846.16;5054205;28;20620;-81
2022/04/05 02:14:11;;;;;;;11.80;10.00;;;;;;;6.30;100.00;98846.72;5053182;28;20202;-81
2022/04/05 02:16:39;;;;;;;13.75;10.70;;;;;;;6.36;100.00;98846.41;5054277;28;20185;-82
2022/04/05 02:19:06;;;;;;;15.27;11.48;;;;;;;6.49;100.00;98846.63;5053973;28;20220;-82
2022/04/05 02:21:33;;;;;;;14.18;10.65;;;;;;;6.55;100.00;98845.41;5054378;28;20185;-82
2022/04/05 02:24:00;;;;;;;12.68;9.93;;;;;;;6.51;100.00;98842.03;5053799;28;20197;-82
2022/04/05 02:26:27;;;;;;;14.80;9.85;;;;;;;6.51;100.00;98843.84;5054311;28;20568;-82
2022/04/05 02:28:53;;;;;;;11.98;10.75;;;;;;;6.34;100.00;98848.28;5053227;28;20596;-81
2022/04/05 02:31:20;;;;;;;12.20;10.82;;;;;;;6.41;100.00;98855.03;5053995;28;20186;-82
2022/04/05 02:33:48;;;;;;;14.73;10.55;;;;;;;6.36;100.00;98854.41;5053766;28;20219;-81
2022/04/05 02:36:15;;;;;;;14.48;10.30;;;;;;;6.34;100.00;98850.09;5054085;28;20189;-81
2022/04/05 02:38:41;;;;;;;12.65;10.23;;;;;;;6.34;100.00;98860.78;5053277;28;20198;-82
2022/04/05 02:41:08;;;;;;;14.35;11.57;;;;;;;6.54;100.00;98857.06;5053738;28;20200;-82
2022/04/05 02:43:35;;;;;;;14.68;10.93;;;;;;;6.49;100.00;98857.31;5054125;28;20200;-82
2022/04/05 02:46:03;;;;;;;13.07;11.25;;;;;;;6.59;100.00;98847.84;5046528;28;20193;-82
2022/04/05 02:48:29;;;;;;;13.18;11.70;;;;;;;6.67;100.00;98842.06;5053869;28;20277;-83
2022/04/05 02:50:57;;;;;;;14.40;10.98;;;;;;;6.63;100.00;98848.56;5053783;28;20199;-82
2022/04/05 02:53:24;;;;;;;13.30;11.55;;;;;;;6.70;100.00;98841.91;5053946;28;20189;-82
2022/04/05 02:55:51;;;;;;;12.77;11.05;;;;;;;6.63;100.00;98848.56;5053843;28;20181;-82
2022/04/05 02:58:17;;;;;;;13.13;11.23;;;;;;;6.66;100.00;98843.03;5053171;28;20225;-81
2022/04/05 03:00:44;;;;;;;13.27;11.10;;;;;;;6.56;100.00;98845.34;5053313;28;20196;-82
2022/04/05 03:03:10;;;;;;;14.38;10.57;;;;;;;6.43;100.00;98839.78;5053328;28;20603;-82
2022/04/05 03:05:37;;;;;;;13.57;11.52;;;;;;;6.41;100.00;98841.66;5053350;28;20204;-81
2022/04/05 03:08:05;;;;;;;12.43;10.88;;;;;;;6.60;100.00;98827.28;5053474;28;20549;-82
2022/04/05 03:10:33;;;;;;;12.98;11.45;;;;;;;6.58;100.00;98837.22;5053361;28;20197;-82
2022/04/05 03:13:01;;;;;;;12.75;10.85;;;;;;;6.50;100.00;98836.78;5053282;28;20205;-82
2022/04/05 03:15:27;;;;;;;12.43;10.82;;;;;;;6.54;100.00;98823.16;5053244;28;20186;-82
2022/04/05 03:17:55;;;;;;;11.77;10.55;;;;;;;6.54;100.00;98838.34;5052984;28;20227;-82
2022/04/05 03:20:22;;;;;;;11.40;9.30;;;;;;;6.57;100.00;98836.34;5053670;28;20255;-81
2022/04/05 03:22:49;;;;;;;12.05;10.65;;;;;;;6.59;100.00;98823.75;5053355;28;20351;-81
2022/04/05 03:25:17;;;;;;;13.40;11.45;;;;;;;6.36;100.00;98829.50;5053581;28;20670;-81
2022/04/05 03:27:44;;;;;;;12.75;10.02;;;;;;;6.52;100.00;98830.41;5052941;28;20628;-82
2022/04/05 03:30:13;;;;;;;11.00;9.90;;;;;;;6.54;100.00;98830.31;5052758;28;20197;-82
2022/04/05 03:32:40;;;;;;;13.13;11.32;;;;;;;6.59;100.00;98829.13;5052585;28;20281;-82
2022/04/05 03:35:08;;;;;;;13.00;10.07;;;;;;;6.58;100.00;98827.41;5053473;28;20185;-82
2022/04/05 03:37:34;;;;;;;13.02;9.85;;;;;;;6.53;100.00;98833.94;5052981;28;20643;-81
2022/04/05 03:40:01;;;;;;;12.00;10.48;;;;;;;6.30;100.00;98837.84;5052956;28;20532;-81
2022/04/05 03:42:29;;;;;;;12.80;10.60;;;;;;;6.39;100.00;98834.66;5052756;28;20194;-81
2022/04/05 03:44:56;;;;;;;11.82;10.32;;;;;;;6.44;100.00;98827.25;5053095;28;20632;-81
2022/04/05 03:47:23;;;;;;;13.00;10.80;;;;;;;6.53;100.00;98834.78;5053096;28;20542;-82
2022/04/05 03:49:50;;;;;;;14.68;10.57;;;;;;;6.29;100.00;98830.75;5052348;28;20280;-82
2022/04/05 03:52:16;;;;;;;12.00;10.60;;;;;;;6.39;100.00;98827.50;5052557;28;20564;-82
2022/04/05 03:54:43;;;;;;;14.02;10.85;;;;;;;6.53;100.00;98826.75;5044785;28;20190;-82
2022/04/05 03:57:09;;;;;;;13.32;11.43;;;;;;;6.57;100.00;98825.66;5053051;28;20189;-82
2022/04/05 03:59:37;;;;;;;12.45;10.68;;;;;;;6.52;100.00;98829.53;5051570;28;20232;-83
2022/04/05 04:02:04;;;;;;;13.10;10.93;;;;;;;6.65;100.00;98826.13;5052779;28;20197;-82
2022/04/05 04:04:31;;;;;;;12.18;10.25;;;;;;;6.72;100.00;98821.28;5052092;28;20201;-83
2022/04/05 04:06:58;;;;;;;12.70;10.25;;;;;;;6.58;100.00;98819.38;5051976;28;20197;-82
2022/04/05 04:09:24;;;;;;;11.52;9.95;;;;;;;6.63;100.00;98830.69;5051911;28;20200;-82
2022/04/05 04:11:52;;;;;;;12.27;9.80;;;;;;;6.63;100.00;98822.66;5052296;28;20188;-82
2022/04/05 04:14:23;;;;;;;10.40;9.27;;;;;;;6.67;100.00;98816.19;5052337;28;20283;-81
2022/04/05 04:16:51;;;;;;;11.90;10.57;;;;;;;6.61;100.00;98819.19;5052349;28;20533;-81
2022/04/05 04:19:17;;;;;;;11.50;9.70;;;;;;;6.69;100.00;98816.09;5051779;28;20213;-82
2022/04/05 04:21:44;;;;;;;10.50;9.40;;;;;;;6.81;100.00;98827.97;5052166;28;20297;-82
2022/04/05 04:24:11;;;;;;;10.18;8.88;;;;;;;6.67;100.00;98818.88;5051333;28;20190;-82
2022/04/05 04:26:37;;;;;;;10.98;9.35;;;;;;;6.71;100.00;98821.38;5044812;28;20196;-82
2022/04/05 04:29:04;;;;;;;12.60;10.10;;;;;;;6.70;100.00;98820.50;5051682;28;20196;-81
2022/04/05 04:31:31;;;;;;;10.68;9.25;;;;;;;6.66;100.00;98822.47;5052392;28;20251;-82
2022/04/05 04:34:00;;;;;;;9.48;8.52;;;;;;;6.67;100.00;98816.19;5052156;28;20212;-81
2022/04/05 04:36:27;;;;;;;10.02;8.20;;;;;;;6.66;100.00;98817.13;5051100;28;20200;-82
2022/04/05 04:38:55;;;;;;;9.25;8.23;;;;;;;6.53;100.00;98815.22;5051993;28;20197;-82
2022/04/05 04:41:22;;;;;;;9.43;8.02;;;;;;;6.55;100.00;98818.66;5051871;28;20549;-82
2022/04/05 04:43:48;;;;;;;9.20;7.70;;;;;;;6.44;100.00;98817.44;5051938;28;20556;-83
2022/04/05 04:46:15;;;;;;;11.23;7.85;;;;;;;6.51;100.00;98809.06;5051894;28;20523;-82
2022/04/05 04:48:41;;;;;;;11.20;8.73;;;;;;;6.36;100.00;98816.97;5052071;28;20632;-82
2022/04/05 04:51:12;;;;;;;10.23;8.60;;;;;;;6.48;100.00;98819.00;5050559;28;20663;-81
2022/04/05 04:53:38;;;;;;;9.27;8.38;;;;;;;6.44;100.00;98830.81;5051776;28;20185;-82
2022/04/05 04:56:05;;;;;;;9.57;8.57;;;;;;;6.30;100.00;98824.47;5050907;28;20199;-82
2022/04/05 04:58:31;;;;;;;10.63;8.50;;;;;;;6.56;100.00;98831.09;5051692;28;20662;-82
2022/04/05 05:00:58;;;;;;;11.07;8.55;;;;;;;6.42;100.00;98829.16;5051311;28;20225;-82
2022/04/05 05:03:25;;;;;;;11.57;9.50;;;;;;;6.40;100.00;98823.00;5051302;28;20269;-82
2022/04/05 05:05:51;;;;;;;9.77;8.80;;;;;;;6.39;100.00;98822.16;5047944;28;20185;-82
2022/04/05 05:08:19;;;;;;;11.23;8.90;;;;;;;6.53;100.00;98821.41;5057865;28;20556;-83
2022/04/05 05:10:46;;;;;;;13.80;8.95;;;;;;;6.48;100.00;98824.34;5051622;28;20189;-82
2022/04/05 05:13:12;;;;;;;10.00;8.93;;;;;;;6.46;100.00;98831.56;5051327;28;20536;-82
2022/04/05 05:15:39;;;;;;;10.88;8.88;;;;;;;6.59;100.00;98826.44;5051057;28;20221;-82
2022/04/05 05:18:06;;;;;;;11.10;9.30;;;;;;;6.50;100.00;98831.44;5051180;28;20217;-82
2022/04/05 05:20:33;;;;;;;12.88;9.50;;;;;;;6.59;100.00;98813.06;5051342;28;20190;-81
2022/04/05 05:23:00;;;;;;;10.73;9.63;;;;;;;6.32;100.00;98810.06;5051228;28;20208;-82
2022/04/05 05:25:28;;;;;;;13.43;10.38;;;;;;;6.46;100.00;98826.22;5051482;28;20185;-82
2022/04/05 05:27:55;;;;;;;8.70;7.90;;;;;;;6.53;100.00;98820.56;5050612;28;20189;-81
2022/04/05 05:30:22;;;;;;;9.93;8.38;;;;;;;6.37;100.00;98821.38;5051246;28;20272;-82
2022/04/05 05:32:50;;;;;;;10.05;8.95;;;;;;;6.33;100.00;98838.56;5050618;28;20205;-82
2022/04/05 05:35:18;;;;;;;9.60;8.60;;;;;;;6.34;100.00;98820.69;5052164;28;20639;-82
2022/04/05 05:37:45;;;;;;;14.98;10.50;;;;;;;6.54;100.00;98827.66;5055086;28;20225;-82
2022/04/05 05:40:13;;;;;;;10.52;8.85;;;;;;;6.50;100.00;98826.94;5054016;28;20627;-81
2022/04/05 05:42:49;;;;;;;9.88;8.70;;;;;;;6.46;100.00;98830.72;5054340;28;20185;-82
2022/04/05 05:45:15;;;;;;;10.65;9.02;;;;;;;6.40;100.00;98826.56;5054342;28;20192;-83
2022/04/05 05:47:42;;;;;;;10.70;9.45;;;;;;;6.54;100.00;98828.50;5054238;28;20548;-82
2022/04/05 05:50:10;;;;;;;11.52;9.02;;;;;;;6.44;100.00;98830.81;5054646;28;20185;-82
2022/04/05 05:52:36;;;;;;;10.68;9.57;;;;;;;6.56;100.00;98823.09;5054768;28;20197;-82
2022/04/05 05:55:03;;;;;;;10.05;8.85;;;;;;;6.50;100.00;98837.63;5053833;28;20541;-82
2022/04/05 05:57:30;;;;;;;11.57;8.95;;;;;;;6.48;100.00;98829.69;5054278;28;20290;-81
2022/04/05 05:59:58;;;;;;;15.82;8.93;;;;;;;6.71;100.00;98840.09;5052598;28;20215;-82
2022/04/05 06:02:25;;;;;;;12.57;8.90;;;;;;;6.58;100.00;98837.22;5048438;28;20196;-83
2022/04/05 06:04:51;;;;;;;14.77;9.60;;;;;;;6.50;100.00;98842.13;5053465;28;20189;-82
2022/04/05 06:07:18;;;;;;;10.95;8.77;;;;;;;6.48;100.00;98835.03;5053931;28;20339;-81
2022/04/05 06:09:44;;;;;;;11.80;9.98;;;;;;;6.55;100.00;98840.91;5054366;28;20177;-81
2022/04/05 06:12:11;;;;;;;13.55;11.35;;;;;;;6.62;100.00;98847.66;5054228;28;20280;-82
2022/04/05 06:14:38;;;;;;;11.07;9.88;;;;;;;6.51;100.00;98849.19;5053985;28;20285;-82
2022/04/05 06:17:06;;;;;;;11.57;10.30;;;;;;;6.76;100.00;98857.66;5054291;28;20186;-82
2022/04/05 06:19:33;;;;;;;11.45;9.75;;;;;;;6.61;100.00;98850.44;5053419;28;20217;-82
2022/04/05 06:22:00;;;;;;;11.38;9.90;;;;;;;6.64;100.00;98855.63;5054330;28;20194;-83
2022/04/05 06:24:27;;;;;;;12.02;10.55;;;;;;;6.46;100.00;98858.31;5053619;28;20201;-82
2022/04/05 06:26:53;;;;;;;12.80;10.43;;;;;;;6.56;100.00;98861.38;5054279;28;20197;-82
2022/04/05 06:29:20;;;;;;;13.00;11.00;;;;;;;6.48;100.00;98861.78;5053410;28;20532;-81
2022/04/05 06:31:46;;;;;;;12.70;10.40;;;;;;;6.45;100.00;98866.44;5054127;28;20189;-80
2022/04/05 06:34:14;;;;;;;12.70;11.35;;;;;;;6.46;100.00;98862.81;5053793;28;20196;-81
2022/04/05 06:36:41;;;;;;;12.18;10.70;;;;;;;6.69;100.00;98869.59;5053862;28;20627;-82
2022/04/05 06:39:07;;;;;;;13.05;10.60;;;;;;;6.72;100.00;98868.59;5053694;28;20670;-81
2022/04/05 06:41:34;;;;;;;10.18;8.90;;;;;;;6.89;100.00;98866.69;5053503;28;20197;-81
2022/04/05 06:44:01;;;;;;;10.55;9.00;;;;;;;6.79;100.00;98870.00;5053408;28;20191;-82
2022/04/05 06:46:27;;;;;;;12.07;10.13;;;;;;;6.78;100.00;98866.41;5053131;28;20197;-81
2022/04/05 06:48:54;;;;;;;10.77;9.30;;;;;;;6.88;100.00;98867.66;5053240;28;20186;-81
2022/04/05 06:51:23;;;;;;;10.00;9.00;;;;;;;6.86;100.00;98874.06;5052301;28;20186;-81
2022/04/05 06:53:50;;;;;;;12.98;9.13;;;;;;;6.80;100.00;98877.06;5053131;28;20276;-84
2022/04/05 06:56:17;;;;;;;13.38;10.70;;;;;;;6.91;100.00;98869.31;5053707;28;20196;-81
2022/04/05 06:58:44;;;;;;;11.15;9.70;;;;;;;6.92;100.00;98879.06;5052910;28;20233;-81
2022/04/05 07:01:10;;;;;;;14.57;10.30;;;;;;;6.90;100.00;98875.63;5053212;28;20280;-81
2022/04/05 07:03:37;;;;;;;12.57;10.80;;;;;;;6.94;100.00;98863.78;5053841;28;20185;-81
2022/04/05 07:06:04;;;;;;;12.00;9.98;;;;;;;6.91;100.00;98865.78;5053179;28;20197;-83
2022/04/05 07:08:31;;;;;;;11.60;9.70;;;;;;;6.91;100.00;98858.59;5053339;28;20186;-82
2022/04/05 07:10:58;;;;;;;10.60;8.82;;;;;;;6.91;100.00;98863.09;5053352;28;20190;-80
2022/04/05 07:13:25;;;;;;;10.60;9.35;;;;;;;7.04;100.00;98872.19;5052149;28;20197;-80
2022/04/05 07:15:51;;;;;;;11.05;9.38;;;;;;;6.94;100.00;98860.25;5051871;28;20188;-81
2022/04/05 07:18:31;;;;;;;10.25;8.70;;;;;;;6.99;100.00;98868.91;5052606;28;20181;-81
2022/04/05 07:20:57;;;;;;;11.20;9.48;;;;;;;7.05;100.00;98868.53;5053290;28;20655;-82
2022/04/05 07:23:24;;;;;;;12.82;10.40;;;;;;;7.21;100.00;98865.88;5053133;28;20192;-83
2022/04/05 07:25:52;;;;;;;10.00;8.43;;;;;;;7.20;100.00;98858.81;5054875;28;20199;-80
2022/04/05 07:28:18;;;;;;;11.30;9.10;;;;;;;7.23;100.00;98863.97;5054051;28;20182;-84
2022/04/05 07:30:45;;;;;;;9.35;8.32;;;;;;;7.23;100.00;98862.16;5053493;28;20535;-81
2022/04/05 07:33:12;;;;;;;9.38;8.38;;;;;;;7.08;100.00;98860.34;5053581;28;20653;-82
2022/04/05 07:35:38;;;;;;;9.57;8.23;;;;;;;7.15;100.00;98858.22;5053485;28;20185;-82
2022/04/05 07:38:05;;;;;;;9.10;8.20;;;;;;;7.14;100.00;98859.13;5052659;28;20231;-81
2022/04/05 07:43:13;;;;;;;11.40;9.05;;;;;;;7.29;100.00;98859.16;5052778;28;20291;-81
2022/04/05 07:45:40;;;;;;;10.77;8.90;;;;;;;7.27;100.00;98865.53;5053184;28;20209;-81
2022/04/05 07:48:08;;;;;;;12.05;9.43;;;;;;;7.21;100.00;98865.88;5052459;28;20285;-79
2022/04/05 07:50:34;;;;;;;10.15;9.10;;;;;;;7.13;100.00;98863.63;5052444;28;20593;-81
2022/04/05 07:53:01;;;;;;;12.73;10.38;;;;;;;7.31;100.00;98862.59;5046329;28;20189;-81
2022/04/05 07:55:28;;;;;;;11.00;9.90;;;;;;;7.29;100.00;98863.63;5052936;28;20526;-81
2022/04/05 07:57:55;;;;;;;11.85;10.07;;;;;;;7.20;100.00;98869.50;5051824;28;20274;-84
2022/04/05 08:00:24;;;;;;;11.75;10.32;;;;;;;7.13;100.00;98873.50;5052706;28;20288;-81
2022/04/05 08:02:51;;;;;;;11.40;10.20;;;;;;;7.22;100.00;98872.97;5053302;28;20217;-82
2022/04/05 08:05:18;;;;;;;12.43;10.18;;;;;;;7.17;100.00;98869.66;5053304;28;20189;-82
2022/04/05 08:07:46;;;;;;;14.48;11.13;;;;;;;7.35;100.00;98875.81;5054452;28;20200;-81
2022/04/05 08:10:13;;;;;;;15.18;11.80;;;;;;;7.21;100.00;98872.13;5053165;28;20189;-81
2022/04/05 08:12:41;;;;;;;14.43;12.05;;;;;;;7.41;100.00;98872.78;5053106;28;20247;-82
2022/04/05 08:15:08;;;;;;;14.40;11.02;;;;;;;7.48;100.00;98877.72;5052494;28;20201;-81
2022/04/05 08:17:36;;;;;;;13.25;11.60;;;;;;;7.37;100.00;98881.94;5053401;28;20201;-81
2022/04/05 08:20:04;;;;;;;14.02;11.52;;;;;;;7.36;100.00;98880.22;5053508;28;20311;-81
2022/04/05 08:22:31;;;;;;;12.07;10.85;;;;;;;7.62;100.00;98881.41;5052726;28;20177;-82
2022/04/05 08:24:57;;;;;;;12.35;11.15;;;;;;;7.65;100.00;98879.44;5052157;28;20666;-82
2022/04/05 08:27:24;;;;;;;11.75;10.60;;;;;;;7.55;100.00;98886.25;5033537;28;20235;-82
2022/04/05 08:29:51;;;;;;;12.07;10.55;;;;;;;7.66;100.00;98882.97;5048572;28;20186;-82
2022/04/05 08:32:17;;;;;;;11.13;10.00;;;;;;;7.64;100.00;98876.81;5047850;28;20198;-82
2022/04/05 08:34:45;;;;;;;13.25;11.88;;;;;;;7.41;100.00;98880.81;5052590;28;20546;-80
2022/04/05 08:37:12;;;;;;;11.75;10.05;;;;;;;7.52;100.00;98883.75;5052282;28;20189;-81
2022/04/05 08:39:40;;;;;;;12.52;10.13;;;;;;;7.59;100.00;98893.16;5052651;28;20655;-80
2022/04/05 08:42:08;;;;;;;11.68;10.15;;;;;;;7.77;100.00;98877.00;5052345;28;20189;-81
2022/04/05 08:44:35;;;;;;;11.07;10.00;;;;;;;7.53;100.00;98882.81;5032612;28;20216;-82
2022/04/05 08:47:04;;;;;;;10.43;9.32;;;;;;;7.47;100.00;98893.88;5036682;28;20288;-81
2022/04/05 08:49:32;;;;;;;10.45;9.38;;;;;;;7.32;100.00;98885.72;5052541;28;20638;-81
2022/04/05 08:52:00;;;;;;;11.23;10.00;;;;;;;7.48;100.00;98895.59;5052354;28;20194;-81
2022/04/05 08:54:26;;;;;;;10.88;9.70;;;;;;;7.67;100.00;98885.56;5052130;28;20257;-82
2022/04/05 08:56:53;;;;;;;10.88;9.73;;;;;;;7.62;100.00;98892.13;5051586;28;20201;-82
2022/04/05 08:59:20;;;;;;;9.60;8.65;;;;;;;7.65;100.00;98891.97;5051851;28;20730;-80
2022/04/05 09:01:46;;;;;;;9.57;8.35;;;;;;;7.72;100.00;98887.97;5051786;28;20272;-82
2022/04/05 09:04:13;;;;;;;12.20;10.45;;;;;;;7.81;100.00;98891.94;5051841;28;20296;-83
2022/04/05 09:06:39;;;;;;;8.77;7.93;;;;;;;7.68;100.00;98889.09;5051671;28;20185;-84
2022/04/05 09:09:13;;;;;;;13.45;11.93;;;;;;;8.02;100.00;98889.81;5053290;28;20188;-81
2022/04/05 09:11:44;;;;;;;12.57;10.05;;;;;;;8.12;100.00;98889.19;5056653;28;20239;-84
2022/04/05 09:14:11;;;;;;;9.10;8.20;;;;;;;8.17;100.00;98893.41;5056817;28;20576;-82
2022/04/05 09:16:38;;;;;;;9.10;8.10;;;;;;;8.02;100.00;98889.81;5055437;28;20192;-82
2022/04/05 09:19:12;;;;;;;10.30;9.30;;;;;;;8.21;100.00;98889.56;5055473;28;20678;-83
2022/04/05 09:21:52;;;;;;;9.82;8.82;;;;;;;8.33;100.00;98880.81;5056029;28;20269;-81
2022/04/05 09:24:21;;;;;;;9.65;8.68;;;;;;;8.28;100.00;98880.22;5055615;28;20197;-83
2022/04/05 09:26:48;;;;;;;9.95;8.45;;;;;;;8.55;100.00;98877.72;5055243;28;20205;-83
2022/04/05 09:29:16;;;;;;;9.02;7.90;;;;;;;8.36;100.00;98877.94;5055389;28;20225;-82
2022/04/05 09:31:45;;;;;;;10.10;7.78;;;;;;;8.33;100.00;98880.81;5055738;28;20292;-83
2022/04/05 09:34:13;;;;;;;9.05;8.20;;;;;;;8.48;100.00;98884.41;5055931;28;20545;-81
2022/04/05 09:36:42;;;;;;;8.13;7.32;;;;;;;8.45;100.00;98877.41;5055643;28;20207;-82
2022/04/05 09:39:15;;;;;;;8.65;7.55;;;;;;;8.32;100.00;98890.69;5055653;28;20404;-82
2022/04/05 09:41:43;;;;;;;8.55;7.65;;;;;;;8.58;100.00;98884.72;5055707;28;20644;-83
2022/04/05 09:44:10;;;;;;;7.65;6.95;;;;;;;8.33;100.00;98881.66;5055653;28;20600;-83
2022/04/05 09:46:36;;;;;;;9.65;8.75;;;;;;;8.38;100.00;98883.22;5055074;28;20209;-82
2022/04/05 09:49:06;;;;;;;8.10;7.30;;;;;;;8.09;100.00;98886.66;5055727;28;20624;-82
2022/04/05 09:51:38;;;;;;;11.65;7.97;;;;;;;8.21;100.00;98889.56;5055281;28;20645;-83
2022/04/05 09:54:05;;;;;;;8.65;7.85;;;;;;;8.39;100.00;98877.78;5055063;28;20203;-83
2022/04/05 09:56:33;;;;;;;8.52;7.72;;;;;;;8.35;100.00;98881.59;5055210;28;20204;-82
2022/04/05 09:59:04;;;;;;;8.82;7.65;;;;;;;8.58;100.00;98890.09;5054757;28;20329;-83
2022/04/05 10:01:32;;;;;;;9.48;7.53;;;;;;;8.53;100.00;98877.81;5052769;28;20199;-80
2022/04/05 10:04:02;;;;;;;7.70;6.97;;;;;;;8.51;100.00;98887.78;5053782;28;20239;-81
2022/04/05 10:06:30;;;;;;;9.48;8.20;;;;;;;8.61;100.00;98880.00;5055019;28;20621;-80
2022/04/05 10:08:57;;;;;;;10.43;8.82;;;;;;;8.69;100.00;98879.56;5053923;28;20207;-81
2022/04/05 10:11:26;;;;;;;9.07;7.63;;;;;;;8.54;100.00;98876.00;5054325;28;20191;-81
2022/04/05 10:13:53;;;;;;;9.55;8.55;;;;;;;8.65;100.00;98880.69;5054052;28;20208;-82
2022/04/05 10:16:25;;;;;;;7.70;7.00;;;;;;;8.33;100.00;98884.34;5054759;28;20202;-82
2022/04/05 10:18:52;;;;;;;8.70;7.80;;;;;;;8.53;100.00;98885.00;5055058;28;20220;-81
2022/04/05 10:21:21;;;;;;;9.43;8.43;;;;;;;8.15;100.00;98890.81;5053974;28;20670;-81
2022/04/05 10:23:48;;;;;;;10.52;8.80;;;;;;;8.23;100.00;98883.19;5054593;28;20196;-81
2022/04/05 10:26:18;;;;;;;11.65;8.27;;;;;;;8.41;100.00;98880.38;5054364;28;20537;-82
2022/04/05 10:28:47;;;;;;;11.95;9.18;;;;;;;8.70;100.00;98881.28;5052932;28;20524;-81
2022/04/05 10:31:20;;;;;;;22.15;17.73;;;;;;;8.76;100.00;98881.75;5053539;28;20186;-80
2022/04/05 10:33:55;;;;;;;9.90;8.90;;;;;;;8.70;100.00;98874.06;5052943;28;20177;-79
2022/04/05 10:36:23;;;;;;;10.13;9.07;;;;;;;8.81;100.00;98869.88;5052989;28;20186;-82
2022/04/05 10:39:13;;;;;;;9.57;8.57;;;;;;;8.75;100.00;98871.09;5052000;28;20194;-81
2022/04/05 10:41:39;;;;;;;11.43;10.00;;;;;;;8.95;100.00;98867.19;5045741;28;20256;-80
2022/04/05 10:44:24;;;;;;;11.32;9.07;;;;;;;8.72;100.00;98865.94;5052437;28;20284;-80
2022/04/05 10:46:55;;;;;;;9.23;8.30;;;;;;;8.77;100.00;98864.72;5053017;28;20205;-81
2022/04/05 10:49:41;;;;;;;10.55;8.75;;;;;;;8.90;100.00;98859.41;5052295;28;20192;-81
2022/04/05 10:52:13;;;;;;;10.20;8.85;;;;;;;9.02;100.00;98871.19;5053303;28;20218;-80
2022/04/05 10:54:41;;;;;;;10.70;8.93;;;;;;;8.95;100.00;98856.44;5052645;28;20609;-81
2022/04/05 10:57:29;;;;;;;10.32;9.23;;;;;;;9.02;100.00;98867.66;5052660;28;20196;-80
2022/04/05 11:00:02;;;;;;;9.85;8.32;;;;;;;9.21;100.00;98868.22;5051893;28;20211;-82
2022/04/05 11:02:41;;;;;;;9.88;8.60;;;;;;;9.03;100.00;98872.09;5041607;28;20648;-80
2022/04/05 11:08:17;;;;;;;10.57;9.48;;;;;;;9.18;100.00;98855.00;5055866;28;20229;-80
2022/04/05 11:10:52;;;;;;;11.57;10.25;;;;;;;9.04;100.00;98857.69;5068739;28;20204;-81
2022/04/05 11:13:21;;;;;;;10.05;9.05;;;;;;;8.86;100.00;98854.34;5072387;28;20285;-81
2022/04/05 11:15:50;;;;;;;11.00;9.23;;;;;;;9.10;100.00;98851.94;5057919;28;20203;-81
2022/04/05 11:18:18;;;;;;;11.32;10.15;;;;;;;9.24;100.00;98854.56;5051338;28;20269;-80
2022/04/05 11:20:47;;;;;;;11.00;9.60;;;;;;;9.07;100.00;98849.44;5051478;28;20215;-80
2022/04/05 11:23:16;;;;;;;12.48;11.18;;;;;;;9.30;100.00;98848.81;5052100;28;20194;-81
2022/04/05 11:25:43;;;;;;;11.20;10.05;;;;;;;9.16;100.00;98860.47;5052002;28;20304;-81
2022/04/05 11:28:12;;;;;;;10.13;9.13;;;;;;;9.11;100.00;98859.00;5051380;28;20200;-80
2022/04/05 11:30:48;;;;;;;11.35;9.98;;;;;;;9.14;100.00;98853.47;5051605;28;20189;-81
2022/04/05 11:33:39;;;;;;;12.23;10.10;;;;;;;9.18;100.00;98849.63;5049723;28;20597;-80